createdAt,value
2023-04-17T00:01:24.762Z,86.96
2023-04-17T00:04:10.473Z,87.04
2023-04-17T00:06:56.447Z,86.29
2023-04-17T00:09:41.636Z,85.77
2023-04-17T00:12:26.855Z,86.23
2023-04-17T00:15:12.556Z,87.02
2023-04-17T00:17:58.056Z,85.77
2023-04-17T00:20:43.330Z,86.36
2023-04-17T00:23:28.495Z,86.57
2023-04-17T00:26:13.898Z,85.51
2023-04-17T00:29:01.777Z,84.92
2023-04-17T00:31:49.150Z,84.41
2023-04-17T00:34:34.569Z,84.49
2023-04-17T00:37:20.039Z,84.99
2023-04-17T00:40:05.756Z,84.34
2023-04-17T00:42:51.071Z,84.41
2023-04-17T00:45:36.428Z,84.39
2023-04-17T00:48:22.069Z,83.73
2023-04-17T00:51:08.042Z,83.79
2023-04-17T00:53:54.464Z,83.96
2023-04-17T00:56:41.146Z,84.50
2023-04-17T00:59:28.288Z,85.16
2023-04-17T01:02:13.602Z,85.40
2023-04-17T01:04:58.813Z,85.05
2023-04-17T01:07:45.389Z,86.16
2023-04-17T01:10:30.725Z,87.45
2023-04-17T01:13:15.897Z,89.19
2023-04-17T01:16:01.745Z,87.88
2023-04-17T01:18:47.855Z,89.03
2023-04-17T01:21:33.398Z,89.58
2023-04-17T01:24:19.441Z,89.31
2023-04-17T01:27:05.060Z,89.61
2023-04-17T01:29:50.950Z,92.93
2023-04-17T01:32:37.814Z,91.48
2023-04-17T01:35:23.236Z,91.39
2023-04-17T01:38:08.458Z,92.26
2023-04-17T01:40:53.544Z,92.01
2023-04-17T01:43:43.738Z,92.57
2023-04-17T01:46:29.746Z,91.08
2023-04-17T01:49:15.060Z,92.30
2023-04-17T01:52:00.467Z,93.45
2023-04-17T01:54:45.789Z,92.05
2023-04-17T01:57:32.792Z,91.30
2023-04-17T02:00:18.183Z,89.95
2023-04-17T02:03:03.962Z,89.65
2023-04-17T02:05:50.470Z,90.32
2023-04-17T02:08:35.698Z,89.87
2023-04-17T02:11:22.242Z,88.84
2023-04-17T02:14:09.755Z,90.32
2023-04-17T02:16:55.145Z,91.89
2023-04-17T02:19:40.314Z,91.12
2023-04-17T02:25:35.731Z,87.92
2023-04-17T02:28:22.100Z,88.28
2023-04-17T02:31:08.636Z,88.96
2023-04-17T02:33:54.066Z,89.58
2023-04-17T02:36:39.297Z,88.87
2023-04-17T02:39:25.704Z,88.54
2023-04-17T02:42:11.156Z,89.33
2023-04-17T02:44:56.478Z,88.64
2023-04-17T02:47:42.097Z,88.08
2023-04-17T02:50:28.565Z,86.30
2023-04-17T02:53:24.967Z,86.15
2023-04-17T02:56:10.387Z,86.49
2023-04-17T02:58:55.633Z,87.82
2023-04-17T03:01:41.090Z,87.95
2023-04-17T03:04:26.806Z,87.94
2023-04-17T03:07:12.261Z,86.82
2023-04-17T03:09:57.691Z,85.49
2023-04-17T03:12:42.738Z,84.74
2023-04-17T03:15:28.265Z,84.10
2023-04-17T03:18:13.320Z,84.37
2023-04-17T03:20:58.504Z,83.57
2023-04-17T03:23:43.603Z,83.19
2023-04-17T03:26:29.081Z,83.13
2023-04-17T03:29:15.828Z,82.21
2023-04-17T03:32:01.019Z,82.00
2023-04-17T03:34:46.901Z,82.03
2023-04-17T03:37:32.450Z,81.86
2023-04-17T03:40:18.006Z,81.70
2023-04-17T03:43:05.115Z,82.26
2023-04-17T03:45:50.883Z,80.67
2023-04-17T03:48:36.741Z,81.70
2023-04-17T03:51:22.104Z,81.71
2023-04-17T03:54:07.264Z,80.91
2023-04-17T03:56:52.367Z,80.07
2023-04-17T03:59:38.027Z,79.49
2023-04-17T04:02:24.431Z,79.84
2023-04-17T04:05:11.845Z,79.00
2023-04-17T04:07:56.996Z,79.49
2023-04-17T04:10:52.777Z,79.25
2023-04-17T04:13:44.174Z,78.57
2023-04-17T04:16:30.242Z,78.44
2023-04-17T04:19:24.003Z,80.16
2023-04-17T04:22:09.884Z,81.54
2023-04-17T04:25:02.543Z,81.97
2023-04-17T04:28:02.648Z,83.49
2023-04-17T04:30:51.060Z,82.92
2023-04-17T04:33:38.962Z,83.95
2023-04-17T04:36:26.183Z,84.39
2023-04-17T04:39:22.771Z,83.51
2023-04-17T04:42:08.304Z,82.35
2023-04-17T04:45:06.061Z,82.77
2023-04-17T04:47:52.532Z,83.20
2023-04-17T04:50:38.275Z,83.52
2023-04-17T04:53:25.095Z,84.45
2023-04-17T04:56:13.906Z,84.53
2023-04-17T04:58:59.053Z,84.28
2023-04-17T05:01:45.016Z,82.77
2023-04-17T05:04:31.735Z,83.56
2023-04-17T05:07:19.100Z,82.81
2023-04-17T05:10:06.127Z,82.44
2023-04-17T05:12:54.734Z,82.25
2023-04-17T05:15:40.050Z,81.96
2023-04-17T05:18:26.567Z,82.62
2023-04-17T05:21:13.387Z,82.49
2023-04-17T05:23:58.842Z,81.27
2023-04-17T05:26:45.589Z,81.51
2023-04-17T05:29:31.690Z,81.09
2023-04-17T05:32:17.262Z,80.34
2023-04-17T05:35:15.295Z,80.39
2023-04-17T05:38:01.596Z,80.29
2023-04-17T05:40:46.997Z,79.35
2023-04-17T05:43:32.140Z,79.47
2023-04-17T05:46:17.633Z,79.71
2023-04-17T05:49:02.713Z,79.41
2023-04-17T05:51:48.392Z,79.40
2023-04-17T05:54:33.928Z,80.97
2023-04-17T05:57:19.343Z,81.29
2023-04-17T06:00:07.643Z,81.30
2023-04-17T06:02:59.772Z,80.87
2023-04-17T06:05:51.760Z,80.91
2023-04-17T06:08:37.832Z,81.33
2023-04-17T06:11:23.553Z,82.53
2023-04-17T06:14:08.837Z,83.21
2023-04-17T06:16:57.366Z,83.72
2023-04-17T06:19:43.121Z,83.78
2023-04-17T06:22:28.402Z,83.37
2023-04-17T06:25:13.791Z,82.26
2023-04-17T06:27:59.299Z,83.95
2023-04-17T06:30:44.715Z,83.58
2023-04-17T06:33:29.907Z,83.79
2023-04-17T06:36:15.884Z,83.35
2023-04-17T06:39:05.841Z,84.81
2023-04-17T06:41:51.345Z,85.81
2023-04-17T06:44:44.567Z,85.81
2023-04-17T06:47:32.142Z,85.83
2023-04-17T06:50:17.591Z,84.76
2023-04-17T06:53:02.926Z,85.18
2023-04-17T06:55:48.099Z,84.62
2023-04-17T06:58:33.564Z,83.20
2023-04-17T07:01:18.942Z,83.24
2023-04-17T07:04:04.535Z,83.42
2023-04-17T07:06:50.374Z,83.37
2023-04-17T07:09:35.955Z,83.61
2023-04-17T07:12:21.159Z,83.65
2023-04-17T07:15:06.739Z,83.62
2023-04-17T07:17:52.224Z,83.53
2023-04-17T07:20:37.729Z,84.26
2023-04-17T07:23:23.252Z,85.64
2023-04-17T07:26:08.806Z,84.80
2023-04-17T07:28:54.335Z,84.96
2023-04-17T07:31:39.756Z,84.61
2023-04-17T07:34:24.977Z,82.45
2023-04-17T07:37:10.195Z,84.26
2023-04-17T07:39:55.404Z,84.67
2023-04-17T07:42:40.725Z,84.78
2023-04-17T07:45:28.380Z,84.33
2023-04-17T07:48:13.569Z,84.79
2023-04-17T07:51:00.179Z,86.68
2023-04-17T07:53:45.587Z,86.12
2023-04-17T07:56:31.181Z,86.05
2023-04-17T07:59:16.807Z,85.74
2023-04-17T08:02:02.113Z,87.02
2023-04-17T08:04:47.772Z,86.01
2023-04-17T08:07:33.402Z,85.32
2023-04-17T08:10:18.628Z,85.41
2023-04-17T08:13:03.819Z,85.20
2023-04-17T08:15:49.014Z,83.02
2023-04-17T08:18:34.348Z,83.79
2023-04-17T08:21:19.793Z,83.70
2023-04-17T08:24:05.354Z,84.18
2023-04-17T08:26:50.920Z,83.08
2023-04-17T08:29:36.379Z,82.30
2023-04-17T08:32:22.109Z,81.93
2023-04-17T08:35:08.330Z,81.00
2023-04-17T08:37:53.752Z,79.63
2023-04-17T08:40:38.861Z,79.67
2023-04-17T08:43:28.524Z,79.06
2023-04-17T08:46:15.001Z,78.29
2023-04-17T08:49:03.031Z,78.36
2023-04-17T08:51:48.475Z,80.99
2023-04-17T08:54:33.828Z,79.33
2023-04-17T08:57:19.032Z,77.06
2023-04-17T09:00:05.312Z,77.69
2023-04-17T09:02:55.488Z,76.03
2023-04-17T09:05:42.338Z,75.39
2023-04-17T09:08:27.836Z,78.24
2023-04-17T09:11:18.947Z,78.26
2023-04-17T09:14:04.217Z,77.47
2023-04-17T09:16:55.411Z,74.39
2023-04-17T09:20:06.352Z,73.08
2023-04-17T09:23:03.388Z,74.24
2023-04-17T09:26:05.819Z,73.50
2023-04-17T09:29:08.772Z,68.01
2023-04-17T09:31:53.940Z,68.91
2023-04-17T09:34:42.586Z,72.29
2023-04-17T09:37:54.385Z,72.86
2023-04-17T09:40:41.574Z,65.92
2023-04-17T09:43:41.029Z,64.70
2023-04-17T09:46:43.174Z,66.54
2023-04-17T09:49:38.987Z,66.65
2023-04-17T09:52:24.635Z,65.84
2023-04-17T09:55:11.716Z,61.60
2023-04-17T09:57:59.299Z,62.06
2023-04-17T10:00:45.077Z,62.75
2023-04-17T10:03:30.919Z,65.43
2023-04-17T10:06:16.904Z,63.43
2023-04-17T10:09:02.682Z,62.92
2023-04-17T10:11:48.096Z,63.81
2023-04-17T10:14:36.449Z,58.22
2023-04-17T10:17:23.532Z,55.98
2023-04-17T10:20:17.799Z,56.70
2023-04-17T10:23:33.379Z,59.73
2023-04-17T10:26:24.431Z,57.96
2023-04-17T10:29:09.869Z,54.49
2023-04-17T10:32:14.641Z,54.53
2023-04-17T10:35:01.897Z,53.73
2023-04-17T10:37:47.258Z,55.66
2023-04-17T10:40:37.173Z,55.07
2023-04-17T10:43:22.923Z,56.72
2023-04-17T10:46:13.173Z,52.96
2023-04-17T10:48:58.711Z,51.94
2023-04-17T10:51:43.796Z,51.34
2023-04-17T10:54:32.846Z,51.83
2023-04-17T10:57:50.116Z,53.49
2023-04-17T11:00:37.299Z,50.85
2023-04-17T11:03:23.544Z,54.79
2023-04-17T11:06:09.913Z,53.15
2023-04-17T11:08:57.381Z,51.98
2023-04-17T11:11:45.064Z,52.21
2023-04-17T11:14:30.669Z,51.90
2023-04-17T11:17:16.168Z,49.93
2023-04-17T11:20:01.469Z,50.98
2023-04-17T11:22:47.826Z,51.26
2023-04-17T11:25:34.565Z,48.05
2023-04-17T11:28:20.769Z,48.22
2023-04-17T11:31:06.109Z,51.88
2023-04-17T11:33:51.574Z,53.21
2023-04-17T11:36:37.107Z,51.33
2023-04-17T11:39:28.092Z,51.35
2023-04-17T11:42:13.574Z,48.56
2023-04-17T11:45:07.372Z,51.11
2023-04-17T11:47:52.722Z,50.44
2023-04-17T11:50:38.682Z,50.52
2023-04-17T11:53:24.779Z,53.56
2023-04-17T11:56:15.672Z,52.55
2023-04-17T11:59:00.750Z,47.60
2023-04-17T12:01:52.208Z,52.04
2023-04-17T12:04:38.466Z,48.79
2023-04-17T12:07:24.056Z,47.35
2023-04-17T12:10:09.744Z,50.83
2023-04-17T12:12:55.155Z,52.01
2023-04-17T12:15:40.308Z,51.88
2023-04-17T12:18:25.764Z,50.81
2023-04-17T12:21:10.897Z,48.92
2023-04-17T12:23:56.470Z,48.33
2023-04-17T12:26:49.272Z,50.82
2023-04-17T12:29:44.080Z,52.27
2023-04-17T12:32:30.410Z,52.13
2023-04-17T12:35:16.156Z,54.41
2023-04-17T12:38:01.230Z,52.80
2023-04-17T12:40:46.876Z,56.52
2023-04-17T12:43:32.833Z,54.09
2023-04-17T12:46:18.420Z,59.41
2023-04-17T12:49:03.848Z,59.68
2023-04-17T12:51:49.595Z,54.59
2023-04-17T12:54:34.811Z,53.99
2023-04-17T12:57:20.911Z,58.51
2023-04-17T13:00:06.763Z,54.42
2023-04-17T13:02:52.202Z,57.46
2023-04-17T13:05:37.623Z,56.45
2023-04-17T13:08:22.916Z,56.53
2023-04-17T13:11:08.514Z,60.60
2023-04-17T13:13:53.950Z,55.23
2023-04-17T13:16:39.277Z,55.62
2023-04-17T13:19:24.766Z,55.76
2023-04-17T13:22:10.290Z,52.28
2023-04-17T13:24:55.677Z,50.96
2023-04-17T13:27:41.029Z,51.74
2023-04-17T13:30:26.288Z,51.13
2023-04-17T13:33:11.319Z,51.31
2023-04-17T13:35:56.939Z,51.04
2023-04-17T13:38:42.397Z,53.83
2023-04-17T13:41:28.442Z,51.96
2023-04-17T13:44:13.836Z,53.45
2023-04-17T13:46:59.769Z,51.86
2023-04-17T13:49:44.947Z,52.69
2023-04-17T13:52:30.386Z,54.19
2023-04-17T13:55:15.810Z,49.46
2023-04-17T13:58:01.208Z,52.80
2023-04-17T14:00:46.676Z,52.50
2023-04-17T14:03:32.702Z,51.69
2023-04-17T14:06:18.088Z,47.92
2023-04-17T14:09:03.452Z,45.20
2023-04-17T14:11:48.637Z,42.79
2023-04-17T14:14:34.265Z,43.62
2023-04-17T14:17:19.599Z,41.87
2023-04-17T14:20:06.019Z,42.68
2023-04-17T14:22:51.320Z,46.06
2023-04-17T14:25:37.866Z,45.19
2023-04-17T14:28:23.604Z,44.35
2023-04-17T14:31:08.978Z,44.07
2023-04-17T14:33:54.258Z,45.13
2023-04-17T14:36:39.652Z,45.67
2023-04-17T14:39:24.847Z,46.96
2023-04-17T14:42:10.180Z,46.40
2023-04-17T14:44:56.436Z,46.30
2023-04-17T14:47:41.814Z,46.68
2023-04-17T14:50:26.910Z,46.04
2023-04-17T14:53:12.271Z,46.99
2023-04-17T14:55:57.801Z,47.51
2023-04-17T14:58:43.604Z,46.98
2023-04-17T15:01:29.633Z,47.26
2023-04-17T15:04:15.762Z,45.76
2023-04-17T15:07:02.639Z,48.05
2023-04-17T15:09:48.179Z,48.68
2023-04-17T15:12:33.627Z,46.79
2023-04-17T15:15:19.279Z,48.30
2023-04-17T15:18:04.972Z,47.38
2023-04-17T15:20:50.348Z,46.18
2023-04-17T15:23:35.767Z,45.75
2023-04-17T15:26:22.355Z,45.95
2023-04-17T15:29:07.648Z,45.18
2023-04-17T15:31:53.433Z,46.15
2023-04-17T15:34:39.588Z,45.29
2023-04-17T15:37:25.013Z,45.98
2023-04-17T15:40:10.720Z,46.37
2023-04-17T15:42:56.063Z,46.44
2023-04-17T15:45:41.453Z,45.43
2023-04-17T15:48:27.920Z,43.45
2023-04-17T15:51:13.267Z,43.65
2023-04-17T15:53:58.614Z,44.38
2023-04-17T15:56:43.829Z,45.69
2023-04-17T15:59:29.382Z,46.07
2023-04-17T16:02:14.934Z,44.42
2023-04-17T16:05:00.801Z,43.51
2023-04-17T16:07:46.088Z,47.10
2023-04-17T16:10:31.251Z,47.75
2023-04-17T16:13:16.617Z,47.62
2023-04-17T16:16:01.724Z,48.64
2023-04-17T16:18:46.991Z,49.10
2023-04-17T16:21:32.220Z,47.70
2023-04-17T16:24:17.649Z,48.34
2023-04-17T16:27:03.013Z,49.10
2023-04-17T16:29:48.106Z,48.23
2023-04-17T16:32:33.948Z,49.54
2023-04-17T16:35:19.006Z,49.33
2023-04-17T16:38:04.570Z,48.06
2023-04-17T16:40:50.164Z,48.16
2023-04-17T16:43:35.529Z,49.11
2023-04-17T16:46:26.069Z,49.05
2023-04-17T16:49:17.207Z,49.74
2023-04-17T16:52:02.955Z,48.26
2023-04-17T16:54:48.469Z,47.86
2023-04-17T16:57:34.431Z,49.86
2023-04-17T17:00:20.500Z,50.58
2023-04-17T17:03:06.223Z,50.11
2023-04-17T17:05:51.622Z,51.12
2023-04-17T17:08:37.074Z,53.84
2023-04-17T17:11:23.249Z,54.34
2023-04-17T17:14:08.977Z,54.07
2023-04-17T17:16:54.705Z,54.83
2023-04-17T17:19:40.239Z,53.89
2023-04-17T17:22:25.354Z,52.92
2023-04-17T17:25:11.004Z,53.04
2023-04-17T17:27:56.426Z,54.62
2023-04-17T17:30:42.337Z,54.56
2023-04-17T17:33:29.377Z,53.54
2023-04-17T17:36:14.778Z,53.59
2023-04-17T17:39:00.437Z,52.64
2023-04-17T17:41:47.351Z,54.09
2023-04-17T17:44:33.026Z,53.54
2023-04-17T17:47:18.555Z,53.86
2023-04-17T17:50:04.045Z,54.21
2023-04-17T17:52:49.518Z,54.91
2023-04-17T17:55:34.882Z,55.43
2023-04-17T17:58:20.426Z,55.04
2023-04-17T18:01:06.168Z,55.84
2023-04-17T18:03:51.540Z,57.74
2023-04-17T18:06:37.335Z,56.80
2023-04-17T18:09:22.871Z,57.23
2023-04-17T18:12:08.109Z,57.71
2023-04-17T18:14:53.557Z,57.46
2023-04-17T18:17:39.055Z,57.37
2023-04-17T18:20:24.507Z,57.93
2023-04-17T18:23:09.884Z,58.67
2023-04-17T18:26:02.435Z,58.08
2023-04-17T18:28:48.040Z,58.42
2023-04-17T18:31:33.729Z,59.36
2023-04-17T18:34:19.417Z,58.64
2023-04-17T18:37:05.186Z,58.24
2023-04-17T18:39:54.856Z,58.17
2023-04-17T18:42:39.987Z,58.52
2023-04-17T18:45:25.968Z,57.83
2023-04-17T18:48:11.221Z,57.84
2023-04-17T18:50:56.651Z,58.03
2023-04-17T18:53:42.699Z,58.84
2023-04-17T18:56:28.217Z,59.01
2023-04-17T18:59:13.921Z,58.76
2023-04-17T19:01:59.260Z,60.49
2023-04-17T19:04:44.219Z,61.96
2023-04-17T19:07:30.067Z,63.44
2023-04-17T19:10:15.179Z,63.94
2023-04-17T19:13:00.518Z,64.63
2023-04-17T19:15:45.569Z,64.55
2023-04-17T19:18:31.113Z,64.36
2023-04-17T19:21:16.501Z,65.19
2023-04-17T19:24:01.810Z,66.02
2023-04-17T19:26:47.346Z,65.61
2023-04-17T19:29:32.682Z,66.41
2023-04-17T19:32:17.946Z,66.77
2023-04-17T19:35:03.847Z,67.26
2023-04-17T19:37:49.234Z,66.69
2023-04-17T19:40:35.287Z,66.99
2023-04-17T19:43:20.717Z,67.18
2023-04-17T19:46:06.166Z,66.92
2023-04-17T19:48:51.290Z,67.78
2023-04-17T19:51:37.811Z,67.95
2023-04-17T19:54:22.916Z,69.08
2023-04-17T19:57:08.128Z,68.29
2023-04-17T19:59:53.355Z,68.90
2023-04-17T20:02:38.870Z,68.34
2023-04-17T20:05:24.620Z,68.42
2023-04-17T20:08:10.047Z,69.14
2023-04-17T20:10:55.206Z,69.08
2023-04-17T20:13:41.591Z,69.65
2023-04-17T20:16:27.263Z,68.99
2023-04-17T20:19:13.402Z,69.96
2023-04-17T20:21:59.020Z,69.75
2023-04-17T20:24:44.118Z,69.94
2023-04-17T20:27:29.460Z,69.29
2023-04-17T20:30:15.169Z,70.34
2023-04-17T20:33:00.392Z,69.78
2023-04-17T20:35:46.148Z,69.87
2023-04-17T20:38:31.378Z,70.14
2023-04-17T20:41:16.968Z,70.86
2023-04-17T20:44:02.787Z,71.34
2023-04-17T20:46:48.392Z,71.15
2023-04-17T20:49:34.114Z,70.76
2023-04-17T20:52:19.826Z,70.84
2023-04-17T20:55:06.314Z,70.89
2023-04-17T20:57:52.273Z,72.04
2023-04-17T21:00:42.102Z,72.77
2023-04-17T21:03:33.498Z,72.95
2023-04-17T21:06:18.677Z,72.69
2023-04-17T21:09:04.264Z,72.78
2023-04-17T21:11:49.688Z,73.47
2023-04-17T21:14:36.784Z,73.81
2023-04-17T21:17:22.802Z,73.79
2023-04-17T21:20:09.084Z,75.14
2023-04-17T21:22:54.664Z,75.95
2023-04-17T21:25:39.773Z,77.59
2023-04-17T21:28:25.376Z,78.04
2023-04-17T21:31:14.208Z,77.68
2023-04-17T21:33:59.963Z,77.79
2023-04-17T21:36:45.649Z,78.14
2023-04-17T21:39:32.903Z,77.79
2023-04-17T21:42:18.445Z,77.64
2023-04-17T21:45:03.731Z,77.96
2023-04-17T21:47:49.370Z,78.16
2023-04-17T21:50:34.654Z,79.00
2023-04-17T21:53:20.135Z,79.39
2023-04-17T21:56:06.963Z,79.75
2023-04-17T21:58:52.770Z,80.12
2023-04-17T22:01:38.330Z,81.32
2023-04-17T22:04:23.867Z,80.95
2023-04-17T22:07:09.132Z,81.49
2023-04-17T22:09:54.332Z,81.92
2023-04-17T22:12:39.509Z,81.65
2023-04-17T22:15:24.950Z,81.58
2023-04-17T22:18:10.480Z,81.52
2023-04-17T22:20:56.106Z,81.92
2023-04-17T22:23:41.549Z,83.15
2023-04-17T22:26:27.868Z,83.34
2023-04-17T22:29:13.446Z,83.95
2023-04-17T22:31:59.012Z,83.81
2023-04-17T22:34:49.001Z,84.96
2023-04-17T22:37:34.450Z,81.40
2023-04-17T22:40:20.070Z,82.48
2023-04-17T22:43:05.667Z,81.84
2023-04-17T22:45:51.122Z,81.25
2023-04-17T22:48:36.594Z,79.35
2023-04-17T22:51:22.027Z,79.39
2023-04-17T22:54:19.058Z,80.23
2023-04-17T22:57:10.299Z,79.66
2023-04-17T22:59:55.757Z,79.63
2023-04-17T23:02:41.075Z,79.69
2023-04-17T23:05:26.354Z,79.34
2023-04-17T23:08:11.776Z,80.13
2023-04-17T23:11:01.572Z,80.75
2023-04-17T23:13:47.052Z,80.59
2023-04-17T23:16:32.737Z,80.39
2023-04-17T23:19:18.210Z,79.80
2023-04-17T23:22:03.371Z,79.46
2023-04-17T23:24:48.744Z,78.98
2023-04-17T23:27:34.089Z,78.80
2023-04-17T23:30:19.712Z,80.20
2023-04-17T23:33:05.348Z,79.74
2023-04-17T23:35:50.593Z,79.81
2023-04-17T23:38:36.153Z,80.25
2023-04-17T23:41:21.478Z,79.97
2023-04-17T23:44:06.706Z,79.64
2023-04-17T23:46:52.403Z,80.20
2023-04-17T23:49:37.683Z,80.63
2023-04-17T23:52:23.049Z,80.01
2023-04-17T23:55:11.379Z,80.61
2023-04-17T23:57:57.289Z,80.62
